ADDS METAR Data INFO
IDs: Format: Raw Decoded Include TAF

Data at: 0215 UTC 18 Jan 2018

KCWI 180156Z AUTO 22016KT 10SM CLR M08/M12 A3032 RMK AO2 SLP296 T10831117 FZRANO
KCWI 180056Z AUTO 23013KT 10SM CLR M08/M12 A3035 RMK AO2 SLP309 T10831117 FZRANO
KCWI 172356Z AUTO 21010KT 10SM CLR M09/M12 A3038 RMK AO2 SLP319 T10891122 11061 21094 56011 FZRANO
KCWI 172256Z AUTO 23012KT 10SM CLR M08/M12 A3039 RMK AO2 SLP321 T10781117 FZRANO
KCWI 172156Z AUTO 24015KT 10SM CLR M07/M11 A3040 RMK AO2 SLP324 T10671111 FZRANO
KCWI 172056Z AUTO 23015KT 10SM CLR M06/M11 A3042 RMK AO2 SLP329 T10611111 58030 FZRANO
KCWI 171956Z AUTO 24014KT 10SM CLR M07/M11 A3045 RMK AO2 SLP341 T10671111 FZRANO
KCWI 171856Z AUTO 25014KT 10SM CLR M08/M12 A3048 RMK AO2 SLP350 T10781117 FZRANO
KCWI 171756Z AUTO 24015KT 10SM CLR M09/M13 A3051 RMK AO2 SLP361 T10941133 11094 21211 58020 FZRANO
KCWI 171656Z AUTO 25010KT 10SM CLR M12/M15 A3056 RMK AO2 SLP381 T11171150 FZRANO
KCWI 171556Z AUTO 25009KT 10SM CLR M15/M18 A3058 RMK AO2 SLP386 T11501178 FZRANO
KCWI 171456Z AUTO 23008KT 10SM CLR M17/M19 A3057 RMK AO2 SLP382 T11671189 55004 FZRANO
KCWI 171356Z AUTO 24007KT 10SM CLR M20/M22 A3056 RMK AO2 SLP381 T12001217 FZRANO
KCWI 171256Z AUTO 23005KT 10SM CLR M21/M23 A3057 RMK AO2 SLP384 T12111228 FZRANO
KCWI 171156Z AUTO 27006KT 10SM CLR M21/M22 A3058 RMK AO2 SLP387 T12061222 11183 21211 55005 FZRANO
KCWI 171056Z AUTO 26007KT 10SM CLR M21/M22 A3058 RMK AO2 SLP384 T12061222 FZRANO
KCWI 170956Z AUTO 27006KT 9SM CLR M21/M23 A3059 RMK AO2 SLP389 T12061228 FZRANO
KCWI 170856Z AUTO 29007KT 10SM CLR M20/M22 A3059 RMK AO2 SLP391 T12001217 50000 FZRANO
KCWI 170756Z AUTO 28007KT 10SM CLR M20/M22 A3060 RMK AO2 SLP392 T12001217 FZRANO
KCWI 170656Z AUTO 28009KT 10SM CLR M18/M21 A3060 RMK AO2 SLP391 T11831206 FZRANO
KCWI 170556Z AUTO 30010KT 10SM CLR M18/M20 A3059 RMK AO2 SLP391 T11831200 11133 21183 410781183 58006 FZRANO
KCWI 170456Z AUTO 28008KT 10SM CLR M18/M20 A3060 RMK AO2 SLP395 T11831200 FZRANO
KCWI 170356Z AUTO 28008KT 10SM CLR M17/M19 A3061 RMK AO2 SLP397 T11721189 FZRANO
KCWI 170256Z AUTO 27009KT 10SM CLR M17/M18 A3061 RMK AO2 SLP396 T11671183 51003 FZRANO
KCWI 170156Z AUTO 28011KT 10SM CLR M16/M18 A3061 RMK AO2 SLP396 T11561178 FZRANO
KCWI 170056Z AUTO 28011KT 10SM CLR M14/M16 A3061 RMK AO2 SLP397 T11391156 FZRANO
KCWI 162356Z AUTO 28009KT 10SM CLR M14/M16 A3060 RMK AO2 SLP395 60000 T11391156 11078 21139 53012 FZRANO
KCWI 162256Z AUTO 28013KT 10SM CLR M11/M14 A3059 RMK AO2 SLP389 T11111139 FZRANO
KCWI 162156Z AUTO 29013KT 10SM CLR M08/M12 A3058 RMK AO2 SLP383 T10831117 FZRANO
KCWI 162056Z AUTO 30012KT 10SM CLR M08/M11 A3057 RMK AO2 SLP380 60000 T10781111 55002 FZRANO
KCWI 161956Z AUTO 30011KT 10SM CLR M08/M12 A3056 RMK AO2 SLP379 T10781117 FZRANO
KCWI 161856Z AUTO 30010KT 10SM FEW037 M09/M12 A3056 RMK AO2 SNE41 SLP377 P0000 T10891122 FZRANO
KCWI 161756Z AUTO 31010KT 9SM -SN FEW016 SCT029 M09/M13 A3057 RMK AO2 SLP382 P0000 60000 T10941128 11094 21172 50003 FZRANO
KCWI 161738Z AUTO 32010KT 9SM FEW023 SCT029 M09/M13 A3058 RMK AO2 SNE37 P0000 FZRANO
KCWI 161711Z AUTO 33010KT 9SM -SN BKN021 M11/M14 A3058 RMK AO2 P0000 FZRANO
KCWI 161656Z AUTO 33010KT 6SM -SN SCT016 M10/M13 A3058 RMK AO2 SNB19 SLP387 P0000 T11001133 FZRANO
KCWI 161556Z AUTO 30012KT 10SM FEW029 M13/M16 A3057 RMK AO2 SLP383 T11331156 FZRANO
KCWI 161456Z AUTO 28011KT 10SM SCT017 M15/M18 A3056 RMK AO2 SLP379 60000 T11501178 52017 FZRANO
KCWI 161431Z AUTO 28011KT 10SM BKN017 M17/M19 A3055 RMK AO2 FZRANO